sensor_id;sensor_type;location;lat;lon;timestamp;pressure;altitude;pressure_sealevel;temperature;humidity
16100;BME280;8154;50.830;12.082;2022-10-16T00:02:29;99150.97;;;22.65;42.53
16100;BME280;8154;50.830;12.082;2022-10-16T00:05:14;99149.13;;;22.65;42.29
16100;BME280;8154;50.830;12.082;2022-10-16T00:07:58;99157.56;;;22.69;42.40
16100;BME280;8154;50.830;12.082;2022-10-16T00:10:42;99152.84;;;22.71;42.31
16100;BME280;8154;50.830;12.082;2022-10-16T00:13:26;99148.09;;;22.66;42.21
16100;BME280;8154;50.830;12.082;2022-10-16T00:16:12;99148.09;;;22.66;42.41
16100;BME280;8154;50.830;12.082;2022-10-16T00:18:57;99149.94;;;22.59;42.47
16100;BME280;8154;50.830;12.082;2022-10-16T00:21:41;99150.13;;;22.58;42.59
16100;BME280;8154;50.830;12.082;2022-10-16T00:24:26;99153.63;;;22.58;42.57
16100;BME280;8154;50.830;12.082;2022-10-16T00:27:10;99152.59;;;22.59;42.70
16100;BME280;8154;50.830;12.082;2022-10-16T00:29:54;99160.38;;;22.61;42.54
16100;BME280;8154;50.830;12.082;2022-10-16T00:32:38;99158.75;;;22.66;42.36
16100;BME280;8154;50.830;12.082;2022-10-16T00:35:23;99149.19;;;22.72;42.36
16100;BME280;8154;50.830;12.082;2022-10-16T00:38:07;99159.41;;;22.68;42.44
16100;BME280;8154;50.830;12.082;2022-10-16T00:40:51;99149.53;;;22.62;42.40
16100;BME280;8154;50.830;12.082;2022-10-16T00:43:55;99147.72;;;22.69;42.49
16100;BME280;8154;50.830;12.082;2022-10-16T00:46:42;99146.72;;;22.70;42.48
16100;BME280;8154;50.830;12.082;2022-10-16T00:49:26;99149.13;;;22.65;42.49
16100;BME280;8154;50.830;12.082;2022-10-16T00:52:10;99151.41;;;22.68;42.37
16100;BME280;8154;50.830;12.082;2022-10-16T00:54:55;99145.44;;;22.66;42.38
16100;BME280;8154;50.830;12.082;2022-10-16T00:57:41;99143.19;;;22.63;42.64
16100;BME280;8154;50.830;12.082;2022-10-16T01:00:26;99144.25;;;22.69;42.43
16100;BME280;8154;50.830;12.082;2022-10-16T01:03:29;99151.84;;;22.72;42.47
16100;BME280;8154;50.830;12.082;2022-10-16T01:06:22;99154.69;;;22.70;42.38
16100;BME280;8154;50.830;12.082;2022-10-16T01:09:22;99162.88;;;22.69;42.35
16100;BME280;8154;50.830;12.082;2022-10-16T01:15:16;99163.50;;;22.71;42.34
16100;BME280;8154;50.830;12.082;2022-10-16T01:18:15;99173.34;;;22.70;42.33
16100;BME280;8154;50.830;12.082;2022-10-16T01:21:14;99176.81;;;22.71;42.22
16100;BME280;8154;50.830;12.082;2022-10-16T01:29:58;99177.69;;;22.78;42.30
16100;BME280;8154;50.830;12.082;2022-10-16T01:32:54;99174.59;;;22.74;42.08
16100;BME280;8154;50.830;12.082;2022-10-16T01:35:43;99181.59;;;22.76;42.10
16100;BME280;8154;50.830;12.082;2022-10-16T01:38:34;99177.25;;;22.74;42.25
16100;BME280;8154;50.830;12.082;2022-10-16T01:41:32;99181.19;;;22.79;42.13
16100;BME280;8154;50.830;12.082;2022-10-16T01:44:24;99176.41;;;22.74;42.12
16100;BME280;8154;50.830;12.082;2022-10-16T01:47:13;99175.38;;;22.68;42.31
16100;BME280;8154;50.830;12.082;2022-10-16T01:49:59;99182.53;;;22.68;42.25
16100;BME280;8154;50.830;12.082;2022-10-16T01:52:47;99164.72;;;22.68;42.43
16100;BME280;8154;50.830;12.082;2022-10-16T01:55:36;99157.97;;;22.72;42.21
16100;BME280;8154;50.830;12.082;2022-10-16T01:58:23;99177.25;;;22.74;42.26
16100;BME280;8154;50.830;12.082;2022-10-16T02:01:11;99169.47;;;22.73;42.17
16100;BME280;8154;50.830;12.082;2022-10-16T02:03:58;99176.00;;;22.70;42.38
16100;BME280;8154;50.830;12.082;2022-10-16T02:06:44;99176.16;;;22.62;42.65
16100;BME280;8154;50.830;12.082;2022-10-16T02:09:30;99184.41;;;22.67;42.50
16100;BME280;8154;50.830;12.082;2022-10-16T02:12:26;99180.91;;;22.67;42.48
16100;BME280;8154;50.830;12.082;2022-10-16T02:15:11;99176.16;;;22.62;42.65
16100;BME280;8154;50.830;12.082;2022-10-16T02:17:55;99182.13;;;22.64;42.47
16100;BME280;8154;50.830;12.082;2022-10-16T02:20:54;99183.56;;;22.67;42.55
16100;BME280;8154;50.830;12.082;2022-10-16T02:23:45;99182.34;;;22.69;42.54
16100;BME280;8154;50.830;12.082;2022-10-16T02:27:00;99179.88;;;22.68;42.32
16100;BME280;8154;50.830;12.082;2022-10-16T02:29:46;99190.53;;;22.68;42.32
16100;BME280;8154;50.830;12.082;2022-10-16T02:32:35;99199.13;;;22.63;42.69
16100;BME280;8154;50.830;12.082;2022-10-16T02:35:22;99208.59;;;22.72;42.31
16100;BME280;8154;50.830;12.082;2022-10-16T02:38:08;99204.28;;;22.71;42.48
16100;BME280;8154;50.830;12.082;2022-10-16T02:40:52;99197.13;;;22.72;42.23
16100;BME280;8154;50.830;12.082;2022-10-16T02:43:36;99196.50;;;22.70;42.38
16100;BME280;8154;50.830;12.082;2022-10-16T02:46:21;99192.81;;;22.71;42.39
16100;BME280;8154;50.830;12.082;2022-10-16T02:49:05;99201.22;;;22.74;42.35
16100;BME280;8154;50.830;12.082;2022-10-16T02:51:49;99201.44;;;22.73;42.25
16100;BME280;8154;50.830;12.082;2022-10-16T02:54:33;99203.91;;;22.74;42.18
16100;BME280;8154;50.830;12.082;2022-10-16T02:57:17;99192.41;;;22.74;42.35
16100;BME280;8154;50.830;12.082;2022-10-16T03:00:03;99194.03;;;22.68;42.32
16100;BME280;8154;50.830;12.082;2022-10-16T03:02:48;99206.13;;;22.71;42.24
16100;BME280;8154;50.830;12.082;2022-10-16T03:05:32;99208.22;;;22.76;42.17
16100;BME280;8154;50.830;12.082;2022-10-16T03:08:16;99201.22;;;22.74;42.15
16100;BME280;8154;50.830;12.082;2022-10-16T03:11:01;99208.38;;;22.74;42.11
16100;BME280;8154;50.830;12.082;2022-10-16T03:13:45;99210.50;;;22.79;42.18
16100;BME280;8154;50.830;12.082;2022-10-16T03:16:29;99209.63;;;22.71;42.30
16100;BME280;8154;50.830;12.082;2022-10-16T03:19:13;99212.09;;;22.73;42.43
16100;BME280;8154;50.830;12.082;2022-10-16T03:22:00;99208.59;;;22.72;42.20
16100;BME280;8154;50.830;12.082;2022-10-16T03:24:44;99190.72;;;22.66;42.44
16100;BME280;8154;50.830;12.082;2022-10-16T03:27:28;99177.19;;;22.61;42.54
16100;BME280;8154;50.830;12.082;2022-10-16T03:30:12;99189.53;;;22.69;42.61
16100;BME280;8154;50.830;12.082;2022-10-16T03:32:56;99201.38;;;22.66;42.38
16100;BME280;8154;50.830;12.082;2022-10-16T03:35:40;99193.44;;;22.73;42.33
16100;BME280;8154;50.830;12.082;2022-10-16T03:38:25;99208.59;;;22.72;42.22
16100;BME280;8154;50.830;12.082;2022-10-16T03:41:09;99213.31;;;22.70;42.37
16100;BME280;8154;50.830;12.082;2022-10-16T03:43:53;99204.06;;;22.66;42.28
16100;BME280;8154;50.830;12.082;2022-10-16T03:46:37;99209.16;;;22.61;42.58
16100;BME280;8154;50.830;12.082;2022-10-16T03:49:21;99201.00;;;22.69;42.34
16100;BME280;8154;50.830;12.082;2022-10-16T03:52:06;99197.09;;;22.65;42.35
16100;BME280;8154;50.830;12.082;2022-10-16T03:54:50;99199.34;;;22.68;42.44
16100;BME280;8154;50.830;12.082;2022-10-16T03:57:35;99195.28;;;22.72;42.34
16100;BME280;8154;50.830;12.082;2022-10-16T04:00:19;99199.59;;;22.73;42.37
16100;BME280;8154;50.830;12.082;2022-10-16T04:03:03;99209.41;;;22.73;42.26
16100;BME280;8154;50.830;12.082;2022-10-16T04:05:47;99197.72;;;22.74;42.40
16100;BME280;8154;50.830;12.082;2022-10-16T04:08:31;99200.41;;;22.74;42.29
16100;BME280;8154;50.830;12.082;2022-10-16T04:11:19;99200.22;;;22.76;42.37
16100;BME280;8154;50.830;12.082;2022-10-16T04:14:03;99210.66;;;22.70;42.24
16100;BME280;8154;50.830;12.082;2022-10-16T04:16:47;99221.69;;;22.67;42.35
16100;BME280;8154;50.830;12.082;2022-10-16T04:19:31;99218.00;;;22.68;42.46
16100;BME280;8154;50.830;12.082;2022-10-16T04:22:15;99221.31;;;22.70;42.16
16100;BME280;8154;50.830;12.082;2022-10-16T04:25:00;99231.81;;;22.79;42.23
16100;BME280;8154;50.830;12.082;2022-10-16T04:27:44;99221.94;;;22.79;42.14
16100;BME280;8154;50.830;12.082;2022-10-16T04:30:28;99227.63;;;22.63;42.52
16100;BME280;8154;50.830;12.082;2022-10-16T04:33:12;99222.88;;;22.65;42.35
16100;BME280;8154;50.830;12.082;2022-10-16T04:35:58;99226.38;;;22.65;42.63
16100;BME280;8154;50.830;12.082;2022-10-16T04:38:43;99226.19;;;22.67;42.57
16100;BME280;8154;50.830;12.082;2022-10-16T04:41:27;99231.31;;;22.68;42.61
16100;BME280;8154;50.830;12.082;2022-10-16T04:44:11;99241.97;;;22.68;42.55
16100;BME280;8154;50.830;12.082;2022-10-16T04:46:55;99247.31;;;22.68;42.64
16100;BME280;8154;50.830;12.082;2022-10-16T04:49:40;99248.94;;;22.69;42.61
16100;BME280;8154;50.830;12.082;2022-10-16T04:52:24;99244.25;;;22.71;42.35
16100;BME280;8154;50.830;12.082;2022-10-16T04:55:09;99257.19;;;22.74;42.34
16100;BME280;8154;50.830;12.082;2022-10-16T04:57:53;99273.16;;;22.74;42.41
16100;BME280;8154;50.830;12.082;2022-10-16T05:00:38;99290.75;;;22.69;42.66
16100;BME280;8154;50.830;12.082;2022-10-16T05:03:22;99293.22;;;22.70;42.60
16100;BME280;8154;50.830;12.082;2022-10-16T05:06:07;99291.19;;;22.72;42.31
16100;BME280;8154;50.830;12.082;2022-10-16T05:08:51;99289.34;;;22.73;42.56
16100;BME280;8154;50.830;12.082;2022-10-16T05:11:35;99280.31;;;22.74;42.31
16100;BME280;8154;50.830;12.082;2022-10-16T05:14:20;99285.03;;;22.72;42.47
16100;BME280;8154;50.830;12.082;2022-10-16T05:17:04;99280.72;;;22.71;42.35
16100;BME280;8154;50.830;12.082;2022-10-16T05:19:47;99284.84;;;22.73;42.43
16100;BME280;8154;50.830;12.082;2022-10-16T05:22:32;99281.34;;;22.73;42.23
16100;BME280;8154;50.830;12.082;2022-10-16T05:25:16;99287.50;;;22.73;42.40
16100;BME280;8154;50.830;12.082;2022-10-16T05:28:01;99277.25;;;22.70;42.44
16100;BME280;8154;50.830;12.082;2022-10-16T05:30:45;99277.66;;;22.74;42.35
16100;BME280;8154;50.830;12.082;2022-10-16T05:33:29;99289.53;;;22.71;42.42
16100;BME280;8154;50.830;12.082;2022-10-16T05:36:13;99283.81;;;22.74;42.17
16100;BME280;8154;50.830;12.082;2022-10-16T05:38:57;99293.47;;;22.76;42.24
16100;BME280;8154;50.830;12.082;2022-10-16T05:41:42;99296.94;;;22.76;42.38
16100;BME280;8154;50.830;12.082;2022-10-16T05:44:27;99288.72;;;22.71;42.55
16100;BME280;8154;50.830;12.082;2022-10-16T05:47:12;99305.53;;;22.71;42.35
16100;BME280;8154;50.830;12.082;2022-10-16T05:49:58;99297.78;;;22.77;42.34
16100;BME280;8154;50.830;12.082;2022-10-16T05:52:42;99309.06;;;22.79;42.30
16100;BME280;8154;50.830;12.082;2022-10-16T05:55:28;99309.28;;;22.84;42.13
16100;BME280;8154;50.830;12.082;2022-10-16T05:58:12;99309.69;;;22.81;42.07
16100;BME280;8154;50.830;12.082;2022-10-16T06:01:05;99307.59;;;22.76;42.29
16100;BME280;8154;50.830;12.082;2022-10-16T06:03:51;99311.69;;;22.72;42.50
16100;BME280;8154;50.830;12.082;2022-10-16T06:06:36;99310.38;;;22.61;42.56
16100;BME280;8154;50.830;12.082;2022-10-16T06:09:20;99313.66;;;22.63;42.70
16100;BME280;8154;50.830;12.082;2022-10-16T06:12:03;99319.03;;;22.70;42.47
16100;BME280;8154;50.830;12.082;2022-10-16T06:14:48;99330.78;;;22.76;42.39
16100;BME280;8154;50.830;12.082;2022-10-16T06:17:32;99339.19;;;22.79;42.32
16100;BME280;8154;50.830;12.082;2022-10-16T06:20:16;99342.88;;;22.78;42.35
16100;BME280;8154;50.830;12.082;2022-10-16T06:23:01;99341.06;;;22.79;42.27
16100;BME280;8154;50.830;12.082;2022-10-16T06:25:45;99348.53;;;22.68;42.56
16100;BME280;8154;50.830;12.082;2022-10-16T06:28:29;99350.19;;;22.69;42.60
16100;BME280;8154;50.830;12.082;2022-10-16T06:31:14;99353.47;;;22.71;42.48
16100;BME280;8154;50.830;12.082;2022-10-16T06:33:59;99369.47;;;22.71;42.48
16100;BME280;8154;50.830;12.082;2022-10-16T06:36:43;99360.84;;;22.69;42.65
16100;BME280;8154;50.830;12.082;2022-10-16T06:39:27;99380.91;;;22.65;42.72
16100;BME280;8154;50.830;12.082;2022-10-16T06:42:11;99378.88;;;22.67;42.55
16100;BME280;8154;50.830;12.082;2022-10-16T06:44:55;99382.78;;;22.71;42.45
16100;BME280;8154;50.830;12.082;2022-10-16T06:47:39;99387.09;;;22.72;42.37
16100;BME280;8154;50.830;12.082;2022-10-16T06:50:23;99389.13;;;22.70;42.64
16100;BME280;8154;50.830;12.082;2022-10-16T06:53:07;99395.66;;;22.68;42.57
16100;BME280;8154;50.830;12.082;2022-10-16T06:55:52;99399.78;;;22.70;42.56
16100;BME280;8154;50.830;12.082;2022-10-16T06:58:36;99388.31;;;22.70;42.27
16100;BME280;8154;50.830;12.082;2022-10-16T07:01:22;99389.94;;;22.71;42.40
16100;BME280;8154;50.830;12.082;2022-10-16T07:04:07;99391.63;;;22.72;42.37
16100;BME280;8154;50.830;12.082;2022-10-16T07:06:51;99384.44;;;22.72;42.33
16100;BME280;8154;50.830;12.082;2022-10-16T07:09:35;99392.00;;;22.69;42.48
16100;BME280;8154;50.830;12.082;2022-10-16T07:12:20;99395.66;;;22.68;42.56
16100;BME280;8154;50.830;12.082;2022-10-16T07:15:05;99386.66;;;22.69;42.33
16100;BME280;8154;50.830;12.082;2022-10-16T07:17:50;99393.63;;;22.70;42.30
16100;BME280;8154;50.830;12.082;2022-10-16T07:20:34;99399.78;;;22.70;42.35
16100;BME280;8154;50.830;12.082;2022-10-16T07:23:18;99394.47;;;22.70;42.44
16100;BME280;8154;50.830;12.082;2022-10-16T07:26:03;99387.09;;;22.72;42.22
16100;BME280;8154;50.830;12.082;2022-10-16T07:28:47;99383.22;;;22.75;42.42
16100;BME280;8154;50.830;12.082;2022-10-16T07:31:31;99396.38;;;22.77;42.29
16100;BME280;8154;50.830;12.082;2022-10-16T07:34:17;99401.06;;;22.74;42.35
16100;BME280;8154;50.830;12.082;2022-10-16T07:37:02;99410.06;;;22.73;42.28
16100;BME280;8154;50.830;12.082;2022-10-16T07:39:47;99411.50;;;22.76;42.23
16100;BME280;8154;50.830;12.082;2022-10-16T07:42:31;99414.19;;;22.76;42.40
16100;BME280;8154;50.830;12.082;2022-10-16T07:45:15;99424.16;;;22.67;42.50
16100;BME280;8154;50.830;12.082;2022-10-16T07:47:59;99414.50;;;22.66;42.59
16100;BME280;8154;50.830;12.082;2022-10-16T07:50:44;99417.16;;;22.66;42.56
16100;BME280;8154;50.830;12.082;2022-10-16T07:53:29;99417.81;;;22.68;42.59
16100;BME280;8154;50.830;12.082;2022-10-16T07:56:15;99420.84;;;22.65;42.67
16100;BME280;8154;50.830;12.082;2022-10-16T07:58:59;99410.84;;;22.67;42.66
16100;BME280;8154;50.830;12.082;2022-10-16T08:01:43;99408.97;;;22.68;42.75
16100;BME280;8154;50.830;12.082;2022-10-16T08:04:27;99417.81;;;22.68;42.38
16100;BME280;8154;50.830;12.082;2022-10-16T08:07:11;99424.78;;;22.69;42.63
16100;BME280;8154;50.830;12.082;2022-10-16T08:09:55;99419.06;;;22.72;42.48
16100;BME280;8154;50.830;12.082;2022-10-16T08:12:42;99410.47;;;22.70;42.70
16100;BME280;8154;50.830;12.082;2022-10-16T08:15:26;99407.41;;;22.73;42.42
16100;BME280;8154;50.830;12.082;2022-10-16T08:18:12;99418.72;;;22.76;42.45
16100;BME280;8154;50.830;12.082;2022-10-16T08:20:58;99422.56;;;22.73;42.51
16100;BME280;8154;50.830;12.082;2022-10-16T08:23:44;99428.53;;;22.75;42.34
16100;BME280;8154;50.830;12.082;2022-10-16T08:26:28;99419.31;;;22.77;42.43
16100;BME280;8154;50.830;12.082;2022-10-16T08:29:14;99429.16;;;22.77;42.39
16100;BME280;8154;50.830;12.082;2022-10-16T08:31:58;99437.59;;;22.81;42.29
16100;BME280;8154;50.830;12.082;2022-10-16T08:34:43;99435.13;;;22.79;42.50
16100;BME280;8154;50.830;12.082;2022-10-16T08:37:31;99423.00;;;22.77;42.35
16100;BME280;8154;50.830;12.082;2022-10-16T08:40:24;99435.94;;;22.80;42.33
16100;BME280;8154;50.830;12.082;2022-10-16T08:49:12;99439.06;;;22.83;42.38
16100;BME280;8154;50.830;12.082;2022-10-16T08:51:59;99439.88;;;22.84;42.33
16100;BME280;8154;50.830;12.082;2022-10-16T08:54:47;99443.28;;;22.77;42.34
16100;BME280;8154;50.830;12.082;2022-10-16T08:57:34;99456.81;;;22.76;42.47
16100;BME280;8154;50.830;12.082;2022-10-16T09:00:18;99450.69;;;22.76;42.55
16100;BME280;8154;50.830;12.082;2022-10-16T09:06:52;99468.94;;;22.79;42.45
16100;BME280;8154;50.830;12.082;2022-10-16T09:10:00;99465.44;;;22.78;42.51
16100;BME280;8154;50.830;12.082;2022-10-16T09:16:40;99491.72;;;22.81;42.55
16100;BME280;8154;50.830;12.082;2022-10-16T09:19:37;99491.25;;;22.77;42.52
16100;BME280;8154;50.830;12.082;2022-10-16T09:22:27;99498.63;;;22.76;42.36
16100;BME280;8154;50.830;12.082;2022-10-16T09:25:16;99508.47;;;22.75;42.51
16100;BME280;8154;50.830;12.082;2022-10-16T09:28:01;99495.13;;;22.75;42.54
16100;BME280;8154;50.830;12.082;2022-10-16T09:30:46;99493.94;;;22.77;42.39
16100;BME280;8154;50.830;12.082;2022-10-16T09:33:37;99498.44;;;22.77;42.50
16100;BME280;8154;50.830;12.082;2022-10-16T09:36:25;99505.22;;;22.80;42.26
16100;BME280;8154;50.830;12.082;2022-10-16T09:39:12;99509.53;;;22.81;42.36
16100;BME280;8154;50.830;12.082;2022-10-16T09:41:56;99508.09;;;22.78;42.54
16100;BME280;8154;50.830;12.082;2022-10-16T09:44:40;99516.66;;;22.73;42.55
16100;BME280;8154;50.830;12.082;2022-10-16T09:47:26;99515.34;;;22.69;42.71
16100;BME280;8154;50.830;12.082;2022-10-16T09:50:22;99525.81;;;22.71;42.60
16100;BME280;8154;50.830;12.082;2022-10-16T09:53:12;99518.28;;;22.74;42.37
16100;BME280;8154;50.830;12.082;2022-10-16T09:55:57;99525.44;;;22.74;42.60
16100;BME280;8154;50.830;12.082;2022-10-16T09:58:43;99529.97;;;22.73;42.54
16100;BME280;8154;50.830;12.082;2022-10-16T10:01:52;99522.72;;;22.67;42.82
16100;BME280;8154;50.830;12.082;2022-10-16T10:04:42;99518.84;;;22.70;42.73
16100;BME280;8154;50.830;12.082;2022-10-16T10:07:35;99526.00;;;22.69;42.63
16100;BME280;8154;50.830;12.082;2022-10-16T10:10:29;99530.34;;;22.70;42.69
16100;BME280;8154;50.830;12.082;2022-10-16T10:13:24;99532.38;;;22.68;42.61
16100;BME280;8154;50.830;12.082;2022-10-16T10:16:10;99529.44;;;22.63;43.00
16100;BME280;8154;50.830;12.082;2022-10-16T10:19:00;99528.81;;;22.61;42.78
16100;BME280;8154;50.830;12.082;2022-10-16T10:21:45;99532.38;;;22.68;42.85
16100;BME280;8154;50.830;12.082;2022-10-16T10:24:31;99528.69;;;22.69;42.61
16100;BME280;8154;50.830;12.082;2022-10-16T10:27:16;99522.09;;;22.65;43.04
16100;BME280;8154;50.830;12.082;2022-10-16T10:30:19;99529.97;;;22.73;42.64
16100;BME280;8154;50.830;12.082;2022-10-16T10:33:27;99539.59;;;22.74;42.56
16100;BME280;8154;50.830;12.082;2022-10-16T10:36:27;99535.03;;;22.68;42.87
16100;BME280;8154;50.830;12.082;2022-10-16T10:39:16;99531.34;;;22.69;42.66
16100;BME280;8154;50.830;12.082;2022-10-16T10:51:04;99531.72;;;22.66;42.73
16100;BME280;8154;50.830;12.082;2022-10-16T10:56:57;99537.03;;;22.66;42.85
16100;BME280;8154;50.830;12.082;2022-10-16T11:06:16;99539.72;;;22.66;42.73
16100;BME280;8154;50.830;12.082;2022-10-16T11:09:28;99537.03;;;22.66;42.85
16100;BME280;8154;50.830;12.082;2022-10-16T11:12:28;99540.72;;;22.65;42.78
16100;BME280;8154;50.830;12.082;2022-10-16T11:15:17;99535.22;;;22.67;43.01
16100;BME280;8154;50.830;12.082;2022-10-16T11:18:08;99543.03;;;22.68;42.72
16100;BME280;8154;50.830;12.082;2022-10-16T11:21:00;99536.25;;;22.66;42.80
16100;BME280;8154;50.830;12.082;2022-10-16T11:26:40;99537.88;;;22.67;42.98
16100;BME280;8154;50.830;12.082;2022-10-16T11:29:29;99551.66;;;22.70;42.85
16100;BME280;8154;50.830;12.082;2022-10-16T11:32:27;99557.59;;;22.72;42.68
16100;BME280;8154;50.830;12.082;2022-10-16T11:35:27;99552.84;;;22.68;42.94
16100;BME280;8154;50.830;12.082;2022-10-16T11:47:40;99572.31;;;22.68;42.74
16100;BME280;8154;50.830;12.082;2022-10-16T11:50:33;99575.63;;;22.70;42.66
16100;BME280;8154;50.830;12.082;2022-10-16T11:56:32;99583.44;;;22.72;42.78
16100;BME280;8154;50.830;12.082;2022-10-16T12:03:03;99573.16;;;22.69;42.80
16100;BME280;8154;50.830;12.082;2022-10-16T12:06:20;99571.31;;;22.69;42.61
16100;BME280;8154;50.830;12.082;2022-10-16T12:09:21;99571.75;;;22.73;42.65
16100;BME280;8154;50.830;12.082;2022-10-16T12:12:24;99570.13;;;22.72;42.75
16100;BME280;8154;50.830;12.082;2022-10-16T12:18:07;99577.09;;;22.73;42.87
16100;BME280;8154;50.830;12.082;2022-10-16T12:21:05;99578.31;;;22.70;42.90
16100;BME280;8154;50.830;12.082;2022-10-16T12:23:52;99582.59;;;22.71;42.72
16100;BME280;8154;50.830;12.082;2022-10-16T12:26:39;99582.59;;;22.71;42.81
16100;BME280;8154;50.830;12.082;2022-10-16T12:29:34;99584.63;;;22.69;42.74
16100;BME280;8154;50.830;12.082;2022-10-16T12:32:33;99591.63;;;22.70;42.80
16100;BME280;8154;50.830;12.082;2022-10-16T12:35:24;99585.91;;;22.73;42.87
16100;BME280;8154;50.830;12.082;2022-10-16T12:41:27;99585.09;;;22.73;42.91
16100;BME280;8154;50.830;12.082;2022-10-16T12:44:23;99591.25;;;22.73;42.78
16100;BME280;8154;50.830;12.082;2022-10-16T12:47:19;99585.09;;;22.73;42.89
16100;BME280;8154;50.830;12.082;2022-10-16T12:50:33;99579.56;;;22.74;42.80
16100;BME280;8154;50.830;12.082;2022-10-16T12:53:21;99587.56;;;22.74;42.79
16100;BME280;8154;50.830;12.082;2022-10-16T13:17:27;99589.28;;;22.82;42.47
16100;BME280;8154;50.830;12.082;2022-10-16T13:23:20;99593.47;;;22.91;42.40
16100;BME280;8154;50.830;12.082;2022-10-16T13:26:20;99591.84;;;22.90;42.47
16100;BME280;8154;50.830;12.082;2022-10-16T13:29:07;99605.72;;;22.86;42.60
16100;BME280;8154;50.830;12.082;2022-10-16T13:31:51;99588.34;;;22.90;42.59
16100;BME280;8154;50.830;12.082;2022-10-16T13:34:44;99583.66;;;22.92;42.60
16100;BME280;8154;50.830;12.082;2022-10-16T13:37:28;99592.28;;;22.94;42.41
16100;BME280;8154;50.830;12.082;2022-10-16T13:40:23;99587.53;;;22.89;42.57
16100;BME280;8154;50.830;12.082;2022-10-16T13:43:08;99588.53;;;22.88;42.59
16100;BME280;8154;50.830;12.082;2022-10-16T13:46:03;99590.63;;;22.93;42.62
16100;BME280;8154;50.830;12.082;2022-10-16T13:49:04;99603.94;;;22.93;42.65
16100;BME280;8154;50.830;12.082;2022-10-16T13:51:59;99607.19;;;22.88;42.63
16100;BME280;8154;50.830;12.082;2022-10-16T13:54:44;99613.16;;;22.90;42.44
16100;BME280;8154;50.830;12.082;2022-10-16T13:57:32;99612.13;;;22.91;42.47
16100;BME280;8154;50.830;12.082;2022-10-16T14:00:25;99618.88;;;22.87;42.78
16100;BME280;8154;50.830;12.082;2022-10-16T14:03:15;99625.22;;;22.86;42.87
16100;BME280;8154;50.830;12.082;2022-10-16T14:06:02;99617.03;;;22.88;42.68
16100;BME280;8154;50.830;12.082;2022-10-16T14:11:53;99622.97;;;22.90;42.67
16100;BME280;8154;50.830;12.082;2022-10-16T14:14:58;99627.94;;;22.93;42.73
16100;BME280;8154;50.830;12.082;2022-10-16T14:17:46;99628.59;;;22.95;42.49
16100;BME280;8154;50.830;12.082;2022-10-16T14:20:33;99636.50;;;22.88;42.67
16100;BME280;8154;50.830;12.082;2022-10-16T14:23:22;99630.38;;;22.88;42.75
16100;BME280;8154;50.830;12.082;2022-10-16T14:29:14;99632.47;;;22.92;42.59
16100;BME280;8154;50.830;12.082;2022-10-16T14:32:00;99631.53;;;23.00;42.51
16100;BME280;8154;50.830;12.082;2022-10-16T14:34:53;99625.53;;;22.98;42.28
16100;BME280;8154;50.830;12.082;2022-10-16T14:37:38;99627.13;;;22.92;42.26
16100;BME280;8154;50.830;12.082;2022-10-16T14:40:27;99634.75;;;22.95;42.50
16100;BME280;8154;50.830;12.082;2022-10-16T14:43:22;99634.56;;;22.97;42.35
16100;BME280;8154;50.830;12.082;2022-10-16T14:46:15;99639.53;;;23.00;42.27
16100;BME280;8154;50.830;12.082;2022-10-16T14:51:55;99645.16;;;22.90;42.73
16100;BME280;8154;50.830;12.082;2022-10-16T14:54:41;99640.84;;;22.89;42.58
16100;BME280;8154;50.830;12.082;2022-10-16T14:57:27;99648.28;;;22.94;42.50
16100;BME280;8154;50.830;12.082;2022-10-16T15:00:22;99645.34;;;22.89;42.62
16100;BME280;8154;50.830;12.082;2022-10-16T15:03:07;99649.63;;;22.90;42.48
16100;BME280;8154;50.830;12.082;2022-10-16T15:05:51;99659.88;;;22.86;42.71
16100;BME280;8154;50.830;12.082;2022-10-16T15:08:35;99652.88;;;22.85;42.56
16100;BME280;8154;50.830;12.082;2022-10-16T15:11:19;99654.25;;;22.81;42.79
16100;BME280;8154;50.830;12.082;2022-10-16T15:14:04;99659.97;;;22.78;42.79
16100;BME280;8154;50.830;12.082;2022-10-16T15:16:49;99669.03;;;22.84;42.68
16100;BME280;8154;50.830;12.082;2022-10-16T15:19:33;99674.56;;;22.82;42.69
16100;BME280;8154;50.830;12.082;2022-10-16T15:22:20;99678.72;;;22.85;42.77
16100;BME280;8154;50.830;12.082;2022-10-16T15:28:16;99675.84;;;22.86;42.55
16100;BME280;8154;50.830;12.082;2022-10-16T15:31:04;99675.66;;;22.88;42.53
16100;BME280;8154;50.830;12.082;2022-10-16T15:33:53;99672.16;;;22.87;42.74
16100;BME280;8154;50.830;12.082;2022-10-16T15:36:40;99674.84;;;22.87;42.52
16100;BME280;8154;50.830;12.082;2022-10-16T15:39:24;99682.63;;;22.89;42.61
16100;BME280;8154;50.830;12.082;2022-10-16T15:42:09;99683.00;;;22.86;42.76
16100;BME280;8154;50.830;12.082;2022-10-16T15:44:53;99691.00;;;22.86;42.62
16100;BME280;8154;50.830;12.082;2022-10-16T15:47:38;99699.66;;;22.88;42.54
16100;BME280;8154;50.830;12.082;2022-10-16T15:50:22;99700.47;;;22.88;42.58
16100;BME280;8154;50.830;12.082;2022-10-16T15:53:07;99712.59;;;22.91;42.60
16100;BME280;8154;50.830;12.082;2022-10-16T15:55:52;99708.28;;;22.90;42.44
16100;BME280;8154;50.830;12.082;2022-10-16T15:58:36;99721.97;;;22.87;42.73
16100;BME280;8154;50.830;12.082;2022-10-16T16:01:21;99719.31;;;22.87;42.62
16100;BME280;8154;50.830;12.082;2022-10-16T16:04:05;99732.25;;;22.90;42.60
16100;BME280;8154;50.830;12.082;2022-10-16T16:06:49;99740.25;;;22.90;42.52
16100;BME280;8154;50.830;12.082;2022-10-16T16:09:33;99742.72;;;22.91;42.39
16100;BME280;8154;50.830;12.082;2022-10-16T16:12:18;99747.44;;;22.89;42.51
16100;BME280;8154;50.830;12.082;2022-10-16T16:15:04;99735.28;;;22.87;42.64
16100;BME280;8154;50.830;12.082;2022-10-16T16:17:48;99735.09;;;22.88;42.60
16100;BME280;8154;50.830;12.082;2022-10-16T16:20:32;99736.59;;;22.91;42.37
16100;BME280;8154;50.830;12.082;2022-10-16T16:23:16;99741.28;;;22.89;42.43
16100;BME280;8154;50.830;12.082;2022-10-16T16:28:49;99740.25;;;22.90;42.64
16100;BME280;8154;50.830;12.082;2022-10-16T16:31:34;99736.41;;;22.92;42.38
16100;BME280;8154;50.830;12.082;2022-10-16T16:34:18;99741.94;;;22.91;42.40